sensor_id;sensor_type;location;lat;lon;timestamp;temperature;humidity
35445;DHT22;21562;49.476;6.086;2023-12-20T00:00:13;7.60;99.90
35445;DHT22;21562;49.476;6.086;2023-12-20T00:02:39;7.70;99.90
35445;DHT22;21562;49.476;6.086;2023-12-20T00:05:05;7.90;99.90
35445;DHT22;21562;49.476;6.086;2023-12-20T00:07:31;7.70;99.90
35445;DHT22;21562;49.476;6.086;2023-12-20T00:09:57;7.60;99.90
35445;DHT22;21562;49.476;6.086;2023-12-20T00:12:22;7.70;99.90
35445;DHT22;21562;49.476;6.086;2023-12-20T00:14:48;7.70;99.90
35445;DHT22;21562;49.476;6.086;2023-12-20T00:17:14;7.60;99.90
35445;DHT22;21562;49.476;6.086;2023-12-20T00:19:40;7.60;99.90
35445;DHT22;21562;49.476;6.086;2023-12-20T00:22:05;7.40;99.90
35445;DHT22;21562;49.476;6.086;2023-12-20T00:24:31;7.60;99.90
35445;DHT22;21562;49.476;6.086;2023-12-20T00:26:57;7.60;99.90
35445;DHT22;21562;49.476;6.086;2023-12-20T00:29:22;7.70;99.90
35445;DHT22;21562;49.476;6.086;2023-12-20T00:31:48;7.60;99.90
35445;DHT22;21562;49.476;6.086;2023-12-20T00:34:13;7.60;99.90
35445;DHT22;21562;49.476;6.086;2023-12-20T00:36:39;7.70;99.90
35445;DHT22;21562;49.476;6.086;2023-12-20T00:39:05;7.80;99.90
35445;DHT22;21562;49.476;6.086;2023-12-20T00:41:32;7.80;99.90
35445;DHT22;21562;49.476;6.086;2023-12-20T00:43:57;7.70;99.90
35445;DHT22;21562;49.476;6.086;2023-12-20T00:46:23;7.50;99.90
35445;DHT22;21562;49.476;6.086;2023-12-20T00:48:49;7.60;99.90
35445;DHT22;21562;49.476;6.086;2023-12-20T00:51:14;7.70;99.90
35445;DHT22;21562;49.476;6.086;2023-12-20T00:53:40;7.60;99.90
35445;DHT22;21562;49.476;6.086;2023-12-20T00:56:05;7.70;99.90
35445;DHT22;21562;49.476;6.086;2023-12-20T00:58:31;7.60;99.90
35445;DHT22;21562;49.476;6.086;2023-12-20T01:00:57;7.60;99.90
35445;DHT22;21562;49.476;6.086;2023-12-20T01:03:23;7.50;99.90
35445;DHT22;21562;49.476;6.086;2023-12-20T01:05:49;7.50;99.90
35445;DHT22;21562;49.476;6.086;2023-12-20T01:08:15;7.50;99.90
35445;DHT22;21562;49.476;6.086;2023-12-20T01:10:40;7.40;99.90
35445;DHT22;21562;49.476;6.086;2023-12-20T01:13:06;7.60;99.90
35445;DHT22;21562;49.476;6.086;2023-12-20T01:15:31;7.70;99.90
35445;DHT22;21562;49.476;6.086;2023-12-20T01:17:57;7.60;99.90
35445;DHT22;21562;49.476;6.086;2023-12-20T01:20:24;7.40;99.90
35445;DHT22;21562;49.476;6.086;2023-12-20T01:22:51;7.50;99.90
35445;DHT22;21562;49.476;6.086;2023-12-20T01:25:16;7.50;99.90
35445;DHT22;21562;49.476;6.086;2023-12-20T01:27:42;7.70;99.90
35445;DHT22;21562;49.476;6.086;2023-12-20T01:30:08;7.80;99.90
35445;DHT22;21562;49.476;6.086;2023-12-20T01:32:34;7.80;99.90
35445;DHT22;21562;49.476;6.086;2023-12-20T01:34:59;7.80;99.90
35445;DHT22;21562;49.476;6.086;2023-12-20T01:37:25;7.80;99.90
35445;DHT22;21562;49.476;6.086;2023-12-20T01:39:52;7.90;99.90
35445;DHT22;21562;49.476;6.086;2023-12-20T01:42:18;7.70;99.90
35445;DHT22;21562;49.476;6.086;2023-12-20T01:44:44;7.70;99.90
35445;DHT22;21562;49.476;6.086;2023-12-20T01:47:10;7.60;99.90
35445;DHT22;21562;49.476;6.086;2023-12-20T01:49:35;7.70;99.90
35445;DHT22;21562;49.476;6.086;2023-12-20T01:52:01;7.70;99.90
35445;DHT22;21562;49.476;6.086;2023-12-20T01:54:27;7.90;99.90
35445;DHT22;21562;49.476;6.086;2023-12-20T01:56:53;7.70;99.90
35445;DHT22;21562;49.476;6.086;2023-12-20T01:59:20;7.80;99.90
35445;DHT22;21562;49.476;6.086;2023-12-20T02:01:46;7.70;99.90
35445;DHT22;21562;49.476;6.086;2023-12-20T02:04:12;7.80;99.90
35445;DHT22;21562;49.476;6.086;2023-12-20T02:06:39;8.00;99.90
35445;DHT22;21562;49.476;6.086;2023-12-20T02:09:06;8.00;99.90
35445;DHT22;21562;49.476;6.086;2023-12-20T02:11:33;7.80;99.90
35445;DHT22;21562;49.476;6.086;2023-12-20T02:13:59;7.70;99.90
35445;DHT22;21562;49.476;6.086;2023-12-20T02:16:24;7.90;99.90
35445;DHT22;21562;49.476;6.086;2023-12-20T02:18:50;7.90;99.90
35445;DHT22;21562;49.476;6.086;2023-12-20T02:21:16;7.70;99.90
35445;DHT22;21562;49.476;6.086;2023-12-20T02:23:41;7.80;99.90
35445;DHT22;21562;49.476;6.086;2023-12-20T02:26:07;7.90;99.90
35445;DHT22;21562;49.476;6.086;2023-12-20T02:28:33;8.00;99.90
35445;DHT22;21562;49.476;6.086;2023-12-20T02:30:59;8.20;99.90
35445;DHT22;21562;49.476;6.086;2023-12-20T02:33:25;8.00;99.90
35445;DHT22;21562;49.476;6.086;2023-12-20T02:35:50;7.90;99.90
35445;DHT22;21562;49.476;6.086;2023-12-20T02:38:18;8.00;99.90
35445;DHT22;21562;49.476;6.086;2023-12-20T02:40:43;8.00;99.90
35445;DHT22;21562;49.476;6.086;2023-12-20T02:43:09;7.90;99.90
35445;DHT22;21562;49.476;6.086;2023-12-20T02:45:34;7.90;99.90
35445;DHT22;21562;49.476;6.086;2023-12-20T02:48:00;7.80;99.90
35445;DHT22;21562;49.476;6.086;2023-12-20T02:50:26;7.60;99.90
35445;DHT22;21562;49.476;6.086;2023-12-20T02:52:51;7.40;99.90
35445;DHT22;21562;49.476;6.086;2023-12-20T02:55:17;7.50;99.90
35445;DHT22;21562;49.476;6.086;2023-12-20T02:57:43;7.80;99.90
35445;DHT22;21562;49.476;6.086;2023-12-20T03:00:09;7.70;99.90
35445;DHT22;21562;49.476;6.086;2023-12-20T03:02:36;7.80;99.90
35445;DHT22;21562;49.476;6.086;2023-12-20T03:05:02;7.60;99.90
35445;DHT22;21562;49.476;6.086;2023-12-20T03:07:28;7.70;99.90
35445;DHT22;21562;49.476;6.086;2023-12-20T03:09:53;7.40;99.90
35445;DHT22;21562;49.476;6.086;2023-12-20T03:12:19;7.20;99.90
35445;DHT22;21562;49.476;6.086;2023-12-20T03:14:45;7.20;99.90
35445;DHT22;21562;49.476;6.086;2023-12-20T03:17:10;7.40;99.90
35445;DHT22;21562;49.476;6.086;2023-12-20T03:19:36;7.60;99.90
35445;DHT22;21562;49.476;6.086;2023-12-20T03:22:02;7.70;99.90
35445;DHT22;21562;49.476;6.086;2023-12-20T03:24:27;7.50;99.90
35445;DHT22;21562;49.476;6.086;2023-12-20T03:26:53;7.50;99.90
35445;DHT22;21562;49.476;6.086;2023-12-20T03:29:19;7.40;99.90
35445;DHT22;21562;49.476;6.086;2023-12-20T03:31:45;7.50;99.90
35445;DHT22;21562;49.476;6.086;2023-12-20T03:34:11;7.60;99.90
35445;DHT22;21562;49.476;6.086;2023-12-20T03:36:37;7.40;99.90
35445;DHT22;21562;49.476;6.086;2023-12-20T03:39:03;7.30;99.90
35445;DHT22;21562;49.476;6.086;2023-12-20T03:41:28;7.20;99.90
35445;DHT22;21562;49.476;6.086;2023-12-20T03:43:54;6.80;99.90
35445;DHT22;21562;49.476;6.086;2023-12-20T03:46:20;6.70;99.90
35445;DHT22;21562;49.476;6.086;2023-12-20T03:48:46;6.60;99.90
35445;DHT22;21562;49.476;6.086;2023-12-20T03:51:12;6.80;99.90
35445;DHT22;21562;49.476;6.086;2023-12-20T03:53:37;6.80;99.90
35445;DHT22;21562;49.476;6.086;2023-12-20T03:56:05;7.10;99.90
35445;DHT22;21562;49.476;6.086;2023-12-20T03:58:30;7.10;99.90
35445;DHT22;21562;49.476;6.086;2023-12-20T04:00:56;7.30;99.90
35445;DHT22;21562;49.476;6.086;2023-12-20T04:03:22;7.20;99.90
35445;DHT22;21562;49.476;6.086;2023-12-20T04:05:47;7.40;99.90
35445;DHT22;21562;49.476;6.086;2023-12-20T04:08:13;7.30;99.90
35445;DHT22;21562;49.476;6.086;2023-12-20T04:10:38;7.10;99.90
35445;DHT22;21562;49.476;6.086;2023-12-20T04:13:04;6.60;99.90
35445;DHT22;21562;49.476;6.086;2023-12-20T04:15:30;6.50;99.90
35445;DHT22;21562;49.476;6.086;2023-12-20T04:17:56;6.70;99.90
35445;DHT22;21562;49.476;6.086;2023-12-20T04:20:21;6.80;99.90
35445;DHT22;21562;49.476;6.086;2023-12-20T04:22:47;7.00;99.90
35445;DHT22;21562;49.476;6.086;2023-12-20T04:25:13;7.10;99.90
35445;DHT22;21562;49.476;6.086;2023-12-20T04:27:38;6.90;99.90
35445;DHT22;21562;49.476;6.086;2023-12-20T04:30:07;7.00;99.90
35445;DHT22;21562;49.476;6.086;2023-12-20T04:32:33;7.00;99.90
35445;DHT22;21562;49.476;6.086;2023-12-20T04:34:59;7.00;99.90
35445;DHT22;21562;49.476;6.086;2023-12-20T04:37:24;7.00;99.90
35445;DHT22;21562;49.476;6.086;2023-12-20T04:39:50;7.10;99.90
35445;DHT22;21562;49.476;6.086;2023-12-20T04:42:16;7.10;99.90
35445;DHT22;21562;49.476;6.086;2023-12-20T04:44:41;7.10;99.90
35445;DHT22;21562;49.476;6.086;2023-12-20T04:47:09;7.20;99.90
35445;DHT22;21562;49.476;6.086;2023-12-20T04:49:34;7.00;99.90
35445;DHT22;21562;49.476;6.086;2023-12-20T04:52:00;6.80;99.90
35445;DHT22;21562;49.476;6.086;2023-12-20T04:54:26;6.70;99.90
35445;DHT22;21562;49.476;6.086;2023-12-20T04:56:51;6.60;99.90
35445;DHT22;21562;49.476;6.086;2023-12-20T04:59:17;6.60;99.90
35445;DHT22;21562;49.476;6.086;2023-12-20T05:01:43;6.60;99.90
35445;DHT22;21562;49.476;6.086;2023-12-20T05:04:08;6.80;99.90
35445;DHT22;21562;49.476;6.086;2023-12-20T05:06:34;6.80;99.90
35445;DHT22;21562;49.476;6.086;2023-12-20T05:09:00;6.80;99.90
35445;DHT22;21562;49.476;6.086;2023-12-20T05:11:25;6.80;99.90
35445;DHT22;21562;49.476;6.086;2023-12-20T05:13:51;6.60;99.90
35445;DHT22;21562;49.476;6.086;2023-12-20T05:16:16;6.30;99.90
35445;DHT22;21562;49.476;6.086;2023-12-20T05:18:44;6.30;99.90
35445;DHT22;21562;49.476;6.086;2023-12-20T05:21:10;6.40;99.90
35445;DHT22;21562;49.476;6.086;2023-12-20T05:23:35;6.30;99.90
35445;DHT22;21562;49.476;6.086;2023-12-20T05:26:01;6.30;99.90
35445;DHT22;21562;49.476;6.086;2023-12-20T05:28:27;6.50;99.90
35445;DHT22;21562;49.476;6.086;2023-12-20T05:30:53;6.60;99.90
35445;DHT22;21562;49.476;6.086;2023-12-20T05:33:19;6.70;99.90
35445;DHT22;21562;49.476;6.086;2023-12-20T05:35:44;6.70;99.90
35445;DHT22;21562;49.476;6.086;2023-12-20T05:38:10;6.80;99.90
35445;DHT22;21562;49.476;6.086;2023-12-20T05:40:37;6.50;99.90
35445;DHT22;21562;49.476;6.086;2023-12-20T05:43:02;6.50;99.90
35445;DHT22;21562;49.476;6.086;2023-12-20T05:45:28;6.50;99.90
35445;DHT22;21562;49.476;6.086;2023-12-20T05:47:55;6.30;99.90
35445;DHT22;21562;49.476;6.086;2023-12-20T05:50:20;6.40;99.90
35445;DHT22;21562;49.476;6.086;2023-12-20T05:52:46;6.30;99.90
35445;DHT22;21562;49.476;6.086;2023-12-20T05:55:12;6.50;99.90
35445;DHT22;21562;49.476;6.086;2023-12-20T05:57:38;6.50;99.90
35445;DHT22;21562;49.476;6.086;2023-12-20T06:00:04;6.60;99.90
35445;DHT22;21562;49.476;6.086;2023-12-20T06:02:29;6.60;99.90
35445;DHT22;21562;49.476;6.086;2023-12-20T06:04:55;6.30;99.90
35445;DHT22;21562;49.476;6.086;2023-12-20T06:07:21;6.30;99.90
35445;DHT22;21562;49.476;6.086;2023-12-20T06:09:46;6.20;99.90
35445;DHT22;21562;49.476;6.086;2023-12-20T06:12:12;6.20;99.90
35445;DHT22;21562;49.476;6.086;2023-12-20T06:14:38;6.10;99.90
35445;DHT22;21562;49.476;6.086;2023-12-20T06:17:03;6.10;99.90
35445;DHT22;21562;49.476;6.086;2023-12-20T06:19:29;6.20;99.90
35445;DHT22;21562;49.476;6.086;2023-12-20T06:21:55;6.20;99.90
35445;DHT22;21562;49.476;6.086;2023-12-20T06:24:20;6.20;99.90
35445;DHT22;21562;49.476;6.086;2023-12-20T06:26:47;6.00;99.90
35445;DHT22;21562;49.476;6.086;2023-12-20T06:29:12;6.10;99.90
35445;DHT22;21562;49.476;6.086;2023-12-20T06:31:38;6.20;99.90
35445;DHT22;21562;49.476;6.086;2023-12-20T06:34:04;6.00;99.90
35445;DHT22;21562;49.476;6.086;2023-12-20T06:36:29;5.90;99.90
35445;DHT22;21562;49.476;6.086;2023-12-20T06:38:55;5.90;99.90
35445;DHT22;21562;49.476;6.086;2023-12-20T06:41:21;5.90;99.90
35445;DHT22;21562;49.476;6.086;2023-12-20T06:43:46;5.90;99.90
35445;DHT22;21562;49.476;6.086;2023-12-20T06:46:12;5.90;99.90
35445;DHT22;21562;49.476;6.086;2023-12-20T06:48:39;6.20;99.90
35445;DHT22;21562;49.476;6.086;2023-12-20T06:51:05;6.20;99.90
35445;DHT22;21562;49.476;6.086;2023-12-20T06:53:31;6.30;99.90
35445;DHT22;21562;49.476;6.086;2023-12-20T06:55:56;6.20;99.90
35445;DHT22;21562;49.476;6.086;2023-12-20T06:58:23;6.30;99.90
35445;DHT22;21562;49.476;6.086;2023-12-20T07:00:50;6.30;99.90
35445;DHT22;21562;49.476;6.086;2023-12-20T07:03:17;6.30;99.90
35445;DHT22;21562;49.476;6.086;2023-12-20T07:05:43;6.30;99.90
35445;DHT22;21562;49.476;6.086;2023-12-20T07:08:09;6.30;99.90
35445;DHT22;21562;49.476;6.086;2023-12-20T07:10:35;6.20;99.90
35445;DHT22;21562;49.476;6.086;2023-12-20T07:13:01;6.30;99.90
35445;DHT22;21562;49.476;6.086;2023-12-20T07:15:27;6.30;99.90
35445;DHT22;21562;49.476;6.086;2023-12-20T07:17:54;6.20;99.90
35445;DHT22;21562;49.476;6.086;2023-12-20T07:20:20;6.20;99.90
35445;DHT22;21562;49.476;6.086;2023-12-20T07:22:46;6.00;99.90
35445;DHT22;21562;49.476;6.086;2023-12-20T07:25:11;6.10;99.90
35445;DHT22;21562;49.476;6.086;2023-12-20T07:27:37;6.20;99.90
35445;DHT22;21562;49.476;6.086;2023-12-20T07:30:03;6.10;99.90
35445;DHT22;21562;49.476;6.086;2023-12-20T07:32:29;6.10;99.90
35445;DHT22;21562;49.476;6.086;2023-12-20T07:34:55;6.10;99.90
35445;DHT22;21562;49.476;6.086;2023-12-20T07:37:20;6.10;99.90
35445;DHT22;21562;49.476;6.086;2023-12-20T07:39:46;6.10;99.90
35445;DHT22;21562;49.476;6.086;2023-12-20T07:42:12;6.00;99.90
35445;DHT22;21562;49.476;6.086;2023-12-20T07:44:37;6.00;99.90
35445;DHT22;21562;49.476;6.086;2023-12-20T07:47:03;6.10;99.90
35445;DHT22;21562;49.476;6.086;2023-12-20T07:49:30;6.10;99.90
35445;DHT22;21562;49.476;6.086;2023-12-20T07:51:56;6.10;99.90
35445;DHT22;21562;49.476;6.086;2023-12-20T07:54:22;6.00;99.90
35445;DHT22;21562;49.476;6.086;2023-12-20T07:56:48;5.90;99.90
35445;DHT22;21562;49.476;6.086;2023-12-20T07:59:14;5.90;99.90
35445;DHT22;21562;49.476;6.086;2023-12-20T08:01:40;5.90;99.90
35445;DHT22;21562;49.476;6.086;2023-12-20T08:04:05;6.00;99.90
35445;DHT22;21562;49.476;6.086;2023-12-20T08:06:31;6.10;99.90
35445;DHT22;21562;49.476;6.086;2023-12-20T08:08:57;6.10;99.90
35445;DHT22;21562;49.476;6.086;2023-12-20T08:11:22;6.10;99.90
35445;DHT22;21562;49.476;6.086;2023-12-20T08:13:48;6.00;99.90
35445;DHT22;21562;49.476;6.086;2023-12-20T08:16:14;6.10;99.90
35445;DHT22;21562;49.476;6.086;2023-12-20T08:18:41;6.10;99.90
35445;DHT22;21562;49.476;6.086;2023-12-20T08:21:07;5.90;99.90
35445;DHT22;21562;49.476;6.086;2023-12-20T08:23:36;6.00;99.90
35445;DHT22;21562;49.476;6.086;2023-12-20T08:26:06;6.20;99.90
35445;DHT22;21562;49.476;6.086;2023-12-20T08:28:32;6.10;99.90
35445;DHT22;21562;49.476;6.086;2023-12-20T08:30:58;6.20;99.90
35445;DHT22;21562;49.476;6.086;2023-12-20T08:33:24;6.00;99.90
35445;DHT22;21562;49.476;6.086;2023-12-20T08:35:49;6.00;99.90
35445;DHT22;21562;49.476;6.086;2023-12-20T08:38:15;6.10;99.90
35445;DHT22;21562;49.476;6.086;2023-12-20T08:40:42;6.30;99.90
35445;DHT22;21562;49.476;6.086;2023-12-20T08:43:08;6.00;99.90
35445;DHT22;21562;49.476;6.086;2023-12-20T08:45:34;5.70;99.90
35445;DHT22;21562;49.476;6.086;2023-12-20T08:48:00;5.90;99.90
35445;DHT22;21562;49.476;6.086;2023-12-20T08:50:25;5.80;99.90
35445;DHT22;21562;49.476;6.086;2023-12-20T08:52:51;6.00;99.90
35445;DHT22;21562;49.476;6.086;2023-12-20T08:55:17;6.10;99.90
35445;DHT22;21562;49.476;6.086;2023-12-20T08:57:44;6.00;99.90
35445;DHT22;21562;49.476;6.086;2023-12-20T09:00:10;6.10;99.90
35445;DHT22;21562;49.476;6.086;2023-12-20T09:02:36;6.00;99.90
35445;DHT22;21562;49.476;6.086;2023-12-20T09:05:03;5.90;99.90
35445;DHT22;21562;49.476;6.086;2023-12-20T09:07:29;6.00;99.90
35445;DHT22;21562;49.476;6.086;2023-12-20T09:09:57;6.20;99.90
35445;DHT22;21562;49.476;6.086;2023-12-20T09:12:23;6.10;99.90
35445;DHT22;21562;49.476;6.086;2023-12-20T09:14:49;6.10;99.90
35445;DHT22;21562;49.476;6.086;2023-12-20T09:17:16;6.20;99.90
35445;DHT22;21562;49.476;6.086;2023-12-20T09:19:42;6.30;99.90
35445;DHT22;21562;49.476;6.086;2023-12-20T09:22:12;6.30;99.90
35445;DHT22;21562;49.476;6.086;2023-12-20T09:24:38;6.30;99.90
35445;DHT22;21562;49.476;6.086;2023-12-20T09:27:04;6.20;99.90
35445;DHT22;21562;49.476;6.086;2023-12-20T09:29:31;6.20;99.90
35445;DHT22;21562;49.476;6.086;2023-12-20T09:31:56;6.20;99.90
35445;DHT22;21562;49.476;6.086;2023-12-20T09:34:23;6.30;99.90
35445;DHT22;21562;49.476;6.086;2023-12-20T09:36:48;6.10;99.90
35445;DHT22;21562;49.476;6.086;2023-12-20T09:39:15;6.10;99.90
35445;DHT22;21562;49.476;6.086;2023-12-20T09:41:45;5.90;99.90
35445;DHT22;21562;49.476;6.086;2023-12-20T09:44:16;6.20;99.90
35445;DHT22;21562;49.476;6.086;2023-12-20T09:46:49;6.20;99.90
35445;DHT22;21562;49.476;6.086;2023-12-20T09:49:17;6.20;99.90
35445;DHT22;21562;49.476;6.086;2023-12-20T09:51:43;6.20;99.90
35445;DHT22;21562;49.476;6.086;2023-12-20T09:54:15;6.30;99.90
35445;DHT22;21562;49.476;6.086;2023-12-20T09:56:42;6.40;99.90
35445;DHT22;21562;49.476;6.086;2023-12-20T09:59:07;6.60;99.90
35445;DHT22;21562;49.476;6.086;2023-12-20T10:01:34;6.70;99.90
35445;DHT22;21562;49.476;6.086;2023-12-20T10:04:00;6.60;99.90
35445;DHT22;21562;49.476;6.086;2023-12-20T10:06:29;6.60;99.90
35445;DHT22;21562;49.476;6.086;2023-12-20T10:08:54;6.60;99.90
35445;DHT22;21562;49.476;6.086;2023-12-20T10:11:20;6.50;99.90
35445;DHT22;21562;49.476;6.086;2023-12-20T10:13:48;6.40;99.90
35445;DHT22;21562;49.476;6.086;2023-12-20T10:16:13;6.30;99.90
35445;DHT22;21562;49.476;6.086;2023-12-20T10:18:39;6.30;99.90
35445;DHT22;21562;49.476;6.086;2023-12-20T10:21:06;6.30;99.90
35445;DHT22;21562;49.476;6.086;2023-12-20T10:23:32;6.40;99.90
35445;DHT22;21562;49.476;6.086;2023-12-20T10:25:59;6.40;99.90
35445;DHT22;21562;49.476;6.086;2023-12-20T10:28:25;6.30;99.90
35445;DHT22;21562;49.476;6.086;2023-12-20T10:30:56;6.30;99.90
35445;DHT22;21562;49.476;6.086;2023-12-20T10:33:28;6.40;99.90
35445;DHT22;21562;49.476;6.086;2023-12-20T10:35:59;6.30;99.90
35445;DHT22;21562;49.476;6.086;2023-12-20T10:38:25;6.40;99.90
35445;DHT22;21562;49.476;6.086;2023-12-20T10:40:56;6.40;99.90
35445;DHT22;21562;49.476;6.086;2023-12-20T10:43:24;6.40;99.90
35445;DHT22;21562;49.476;6.086;2023-12-20T10:45:51;6.50;99.90
35445;DHT22;21562;49.476;6.086;2023-12-20T10:48:18;6.60;99.90
35445;DHT22;21562;49.476;6.086;2023-12-20T10:50:44;6.50;99.90
35445;DHT22;21562;49.476;6.086;2023-12-20T10:53:10;6.50;99.90
35445;DHT22;21562;49.476;6.086;2023-12-20T10:55:37;6.30;99.90
35445;DHT22;21562;49.476;6.086;2023-12-20T10:58:09;6.30;99.90
35445;DHT22;21562;49.476;6.086;2023-12-20T11:00:39;6.20;99.90
35445;DHT22;21562;49.476;6.086;2023-12-20T11:03:09;6.30;99.90
35445;DHT22;21562;49.476;6.086;2023-12-20T11:08:28;6.30;99.90
35445;DHT22;21562;49.476;6.086;2023-12-20T11:11:07;6.30;99.90
35445;DHT22;21562;49.476;6.086;2023-12-20T11:13:40;6.30;99.90
35445;DHT22;21562;49.476;6.086;2023-12-20T11:16:09;6.30;99.90
35445;DHT22;21562;49.476;6.086;2023-12-20T11:18:35;6.40;99.90
35445;DHT22;21562;49.476;6.086;2023-12-20T11:21:02;6.30;99.90
35445;DHT22;21562;49.476;6.086;2023-12-20T11:23:30;6.40;99.90
35445;DHT22;21562;49.476;6.086;2023-12-20T11:25:57;6.40;99.90
35445;DHT22;21562;49.476;6.086;2023-12-20T11:28:26;6.50;99.90
35445;DHT22;21562;49.476;6.086;2023-12-20T11:30:53;6.50;99.90
35445;DHT22;21562;49.476;6.086;2023-12-20T11:33:27;6.50;99.90
35445;DHT22;21562;49.476;6.086;2023-12-20T11:35:59;6.60;99.90
35445;DHT22;21562;49.476;6.086;2023-12-20T11:38:25;6.70;99.90
35445;DHT22;21562;49.476;6.086;2023-12-20T11:40:54;6.70;99.90
35445;DHT22;21562;49.476;6.086;2023-12-20T11:43:37;6.60;99.90
35445;DHT22;21562;49.476;6.086;2023-12-20T11:46:07;6.60;99.90
35445;DHT22;21562;49.476;6.086;2023-12-20T11:48:38;6.50;99.90
35445;DHT22;21562;49.476;6.086;2023-12-20T11:51:12;6.80;99.90
35445;DHT22;21562;49.476;6.086;2023-12-20T11:53:38;6.60;99.90
35445;DHT22;21562;49.476;6.086;2023-12-20T11:56:06;6.60;99.90
35445;DHT22;21562;49.476;6.086;2023-12-20T11:58:32;6.50;99.90
35445;DHT22;21562;49.476;6.086;2023-12-20T12:00:58;6.50;99.90
35445;DHT22;21562;49.476;6.086;2023-12-20T12:03:24;6.40;99.90
35445;DHT22;21562;49.476;6.086;2023-12-20T12:05:50;6.40;99.90
35445;DHT22;21562;49.476;6.086;2023-12-20T12:08:17;6.40;99.90
35445;DHT22;21562;49.476;6.086;2023-12-20T12:10:45;6.50;99.90
35445;DHT22;21562;49.476;6.086;2023-12-20T12:13:12;6.60;99.90
35445;DHT22;21562;49.476;6.086;2023-12-20T12:15:39;6.60;99.90
35445;DHT22;21562;49.476;6.086;2023-12-20T12:18:07;6.50;99.90
35445;DHT22;21562;49.476;6.086;2023-12-20T12:20:33;6.50;99.90
35445;DHT22;21562;49.476;6.086;2023-12-20T12:23:01;6.50;99.90
35445;DHT22;21562;49.476;6.086;2023-12-20T12:25:28;6.60;99.90
35445;DHT22;21562;49.476;6.086;2023-12-20T12:27:55;6.70;99.90
35445;DHT22;21562;49.476;6.086;2023-12-20T12:30:21;6.80;99.90
35445;DHT22;21562;49.476;6.086;2023-12-20T12:32:47;6.70;99.90
35445;DHT22;21562;49.476;6.086;2023-12-20T12:35:14;6.80;99.90
35445;DHT22;21562;49.476;6.086;2023-12-20T12:37:40;6.70;99.90
35445;DHT22;21562;49.476;6.086;2023-12-20T12:40:10;6.60;99.90
35445;DHT22;21562;49.476;6.086;2023-12-20T12:42:37;6.70;99.90
35445;DHT22;21562;49.476;6.086;2023-12-20T12:45:04;6.70;99.90
35445;DHT22;21562;49.476;6.086;2023-12-20T12:47:30;6.70;99.90
35445;DHT22;21562;49.476;6.086;2023-12-20T12:49:56;6.70;99.90
35445;DHT22;21562;49.476;6.086;2023-12-20T12:52:22;6.70;99.90
35445;DHT22;21562;49.476;6.086;2023-12-20T12:54:48;6.70;99.90
35445;DHT22;21562;49.476;6.086;2023-12-20T12:57:14;6.90;99.90
35445;DHT22;21562;49.476;6.086;2023-12-20T12:59:43;6.90;99.90
35445;DHT22;21562;49.476;6.086;2023-12-20T13:02:14;6.80;99.90
35445;DHT22;21562;49.476;6.086;2023-12-20T13:04:40;6.80;99.90
35445;DHT22;21562;49.476;6.086;2023-12-20T13:07:07;7.00;99.90
35445;DHT22;21562;49.476;6.086;2023-12-20T13:09:33;7.10;99.90
35445;DHT22;21562;49.476;6.086;2023-12-20T13:12:00;7.10;99.90
35445;DHT22;21562;49.476;6.086;2023-12-20T13:14:29;7.00;99.90
35445;DHT22;21562;49.476;6.086;2023-12-20T13:16:54;7.10;99.90
35445;DHT22;21562;49.476;6.086;2023-12-20T13:19:21;7.20;99.90
35445;DHT22;21562;49.476;6.086;2023-12-20T13:21:47;8.00;99.90
35445;DHT22;21562;49.476;6.086;2023-12-20T13:24:12;7.40;99.90
35445;DHT22;21562;49.476;6.086;2023-12-20T13:26:38;7.30;99.90
35445;DHT22;21562;49.476;6.086;2023-12-20T13:29:04;7.20;99.90
35445;DHT22;21562;49.476;6.086;2023-12-20T13:31:29;7.10;99.90
35445;DHT22;21562;49.476;6.086;2023-12-20T13:33:55;6.90;99.90
35445;DHT22;21562;49.476;6.086;2023-12-20T13:36:21;7.00;99.90
35445;DHT22;21562;49.476;6.086;2023-12-20T13:38:46;7.10;99.90
35445;DHT22;21562;49.476;6.086;2023-12-20T13:41:12;7.10;99.90
35445;DHT22;21562;49.476;6.086;2023-12-20T13:43:38;6.90;99.90
35445;DHT22;21562;49.476;6.086;2023-12-20T13:46:03;7.00;99.90
35445;DHT22;21562;49.476;6.086;2023-12-20T13:48:29;7.20;99.90
35445;DHT22;21562;49.476;6.086;2023-12-20T13:50:55;7.20;99.90
35445;DHT22;21562;49.476;6.086;2023-12-20T13:53:20;7.10;99.90
35445;DHT22;21562;49.476;6.086;2023-12-20T13:55:46;7.20;99.90
35445;DHT22;21562;49.476;6.086;2023-12-20T13:58:12;7.20;99.90
35445;DHT22;21562;49.476;6.086;2023-12-20T14:00:38;7.20;99.90
35445;DHT22;21562;49.476;6.086;2023-12-20T14:03:04;7.20;99.90
35445;DHT22;21562;49.476;6.086;2023-12-20T14:05:30;7.40;99.90
35445;DHT22;21562;49.476;6.086;2023-12-20T14:07:56;7.50;99.90
35445;DHT22;21562;49.476;6.086;2023-12-20T14:10:24;7.50;99.90
35445;DHT22;21562;49.476;6.086;2023-12-20T14:12:52;7.50;99.90
35445;DHT22;21562;49.476;6.086;2023-12-20T14:15:18;7.40;99.90
35445;DHT22;21562;49.476;6.086;2023-12-20T14:17:44;7.40;99.90
35445;DHT22;21562;49.476;6.086;2023-12-20T14:20:10;7.10;99.90
35445;DHT22;21562;49.476;6.086;2023-12-20T14:22:38;7.20;99.90
35445;DHT22;21562;49.476;6.086;2023-12-20T14:25:04;7.30;99.90
35445;DHT22;21562;49.476;6.086;2023-12-20T14:27:31;7.40;99.90
35445;DHT22;21562;49.476;6.086;2023-12-20T14:29:57;7.50;99.90
35445;DHT22;21562;49.476;6.086;2023-12-20T14:32:24;7.70;99.90
35445;DHT22;21562;49.476;6.086;2023-12-20T14:34:52;7.70;99.90
35445;DHT22;21562;49.476;6.086;2023-12-20T14:37:17;7.60;99.90
35445;DHT22;21562;49.476;6.086;2023-12-20T14:39:43;7.60;99.90
35445;DHT22;21562;49.476;6.086;2023-12-20T14:42:09;7.60;99.90
35445;DHT22;21562;49.476;6.086;2023-12-20T14:44:38;7.80;99.90
35445;DHT22;21562;49.476;6.086;2023-12-20T14:47:04;7.90;99.90
35445;DHT22;21562;49.476;6.086;2023-12-20T14:49:30;7.60;99.90
35445;DHT22;21562;49.476;6.086;2023-12-20T14:51:56;7.30;99.90
35445;DHT22;21562;49.476;6.086;2023-12-20T14:54:22;7.30;99.90
35445;DHT22;21562;49.476;6.086;2023-12-20T14:56:48;7.20;99.90
35445;DHT22;21562;49.476;6.086;2023-12-20T14:59:13;7.20;99.90
35445;DHT22;21562;49.476;6.086;2023-12-20T15:01:39;7.20;99.90
35445;DHT22;21562;49.476;6.086;2023-12-20T15:04:09;7.20;99.90
35445;DHT22;21562;49.476;6.086;2023-12-20T15:06:36;7.20;99.90
35445;DHT22;21562;49.476;6.086;2023-12-20T15:09:02;7.10;99.90
35445;DHT22;21562;49.476;6.086;2023-12-20T15:11:30;7.30;99.90
35445;DHT22;21562;49.476;6.086;2023-12-20T15:13:56;7.30;99.90
35445;DHT22;21562;49.476;6.086;2023-12-20T15:16:24;7.30;99.90
35445;DHT22;21562;49.476;6.086;2023-12-20T15:18:51;7.40;99.90
35445;DHT22;21562;49.476;6.086;2023-12-20T15:21:19;7.50;99.90
35445;DHT22;21562;49.476;6.086;2023-12-20T15:23:44;7.60;99.90
35445;DHT22;21562;49.476;6.086;2023-12-20T15:26:20;7.60;99.90
35445;DHT22;21562;49.476;6.086;2023-12-20T15:28:45;7.60;99.90
35445;DHT22;21562;49.476;6.086;2023-12-20T15:31:11;7.40;99.90
35445;DHT22;21562;49.476;6.086;2023-12-20T15:33:38;7.40;99.90
35445;DHT22;21562;49.476;6.086;2023-12-20T15:36:04;7.40;99.90
35445;DHT22;21562;49.476;6.086;2023-12-20T15:38:30;7.50;99.90
35445;DHT22;21562;49.476;6.086;2023-12-20T15:40:56;7.50;99.90